Flight Track Log - Related Links

Times and Time Zones

All times are in EDT time to prevent confusion due to time zone crossing. See the N137TK flight status page for this flight to view local times or setup timezone preferences in your user account.

Time Position Orientation Groundspeed Altitude Reporting Facility
EDT Latitude Longitude Course Direction KTS MPH feet Rate Location/Type
Fri 05:11:43 PM 26.1550 -81.6914 169° South 169 194 4,600  Level Miami Center
Fri 05:12:43 PM 26.1117 -81.6781 165° South 178 205 6,700 1,950 Climbing Miami Center
Fri 05:13:43 PM 26.0639 -81.6692 171° South 178 205 8,500 1,150 Climbing Miami Center
Fri 05:14:43 PM 26.0053 -81.6761 186° South 196 226 9,000 250 Climbing Miami Center
Fri 05:15:43 PM 25.9381 -81.6872 188° South 229 264 9,000  Level Miami Center
Fri 05:16:00 PM 25.8752 -81.6037 169° South  Level FlightAware Approximate
Fri 05:16:43 PM 25.8708 -81.7008 190° South 253 291 9,000  Level Miami Center
Fri 05:17:00 PM 25.8232 -81.5922 169° South  Level FlightAware Approximate
Fri 05:17:43 PM 25.8036 -81.7119 188° South 253 291 9,000  Level Miami Center
Fri 05:18:43 PM 25.7328 -81.7089 178° South 258 297 9,000  Level Miami Center
Fri 05:19:43 PM 25.6683 -81.6972 171° South 253 291 9,000 -50 Level Miami Center
Fri 05:20:43 PM 25.6000 -81.6806 168° South 253 291 8,900 -50 Descending Miami Center
Fri 05:21:43 PM 25.5336 -81.6642 167° South 253 291 8,900  Level Miami Center
Fri 05:22:43 PM 25.4653 -81.6478 168° South 253 291 8,900 50 Level Miami Center
Fri 05:23:43 PM 25.4014 -81.6267 163° South 253 291 9,000  Climbing Miami Center
Fri 05:24:43 PM 25.3378 -81.5922 154° Southeast 258 297 8,900 -50 Descending Miami Center
Fri 05:25:43 PM 25.2825 -81.5508 146° Southeast 247 284 8,900  Level Miami Center
Fri 05:26:55 PM 25.2278 -81.5028 142° Southeast 247 284 8,900 -545 Level Miami Center
Fri 05:27:55 PM 25.1628 -81.4431 140° Southeast 252 290 7,700 -1,100 Descending Miami Center
Fri 05:28:55 PM 25.1081 -81.3906 139° Southeast 257 296 6,700 -1,000 Descending Miami Center
Fri 05:29:55 PM 25.0489 -81.3447 145° Southeast 257 296 5,700 -1,000 Descending Miami Center
Fri 05:30:55 PM 24.9894 -81.3014 147° Southeast 257 296 4,700 -1,000 Descending Miami Center

Login

Don't have an account? Register now (free) for customized features, flight alerts, and more!